createdAt,value
2018-05-07T00:00:45.329Z,11.90
2018-05-07T00:03:11.746Z,11.80
2018-05-07T00:05:38.122Z,11.80
2018-05-07T00:08:04.544Z,11.90
2018-05-07T00:10:32.709Z,11.90
2018-05-07T00:12:59.874Z,11.90
2018-05-07T00:15:26.997Z,11.90
2018-05-07T00:17:53.409Z,11.90
2018-05-07T00:20:19.853Z,11.90
2018-05-07T00:22:46.240Z,11.80
2018-05-07T00:25:12.697Z,11.80
2018-05-07T00:27:39.157Z,11.80
2018-05-07T00:30:05.545Z,11.70
2018-05-07T00:32:32.070Z,11.70
2018-05-07T00:34:58.512Z,11.60
2018-05-07T00:37:24.891Z,11.60
2018-05-07T00:39:51.277Z,11.60
2018-05-07T00:42:17.657Z,11.50
2018-05-07T00:44:44.025Z,11.60
2018-05-07T00:47:10.988Z,11.40
2018-05-07T00:49:37.349Z,11.40
2018-05-07T00:52:03.804Z,11.40
2018-05-07T00:54:30.201Z,11.40
2018-05-07T00:56:56.605Z,11.40
2018-05-07T00:59:23.923Z,11.30
2018-05-07T01:01:50.353Z,11.20
2018-05-07T01:04:17.412Z,11.10
2018-05-07T01:06:44.526Z,11.10
2018-05-07T01:09:10.901Z,11.10
2018-05-07T01:11:38.039Z,11.10
2018-05-07T01:14:04.432Z,11.10
2018-05-07T01:16:30.819Z,11.00
2018-05-07T01:18:57.937Z,11.00
2018-05-07T01:21:24.305Z,10.90
2018-05-07T01:23:51.415Z,10.90
2018-05-07T01:26:19.554Z,10.90
2018-05-07T01:28:46.819Z,10.80
2018-05-07T01:31:13.206Z,10.80
2018-05-07T01:33:40.363Z,10.80
2018-05-07T01:36:06.741Z,10.70
2018-05-07T01:38:33.877Z,10.80
2018-05-07T01:41:00.257Z,10.70
2018-05-07T01:43:27.362Z,10.70
2018-05-07T01:45:53.725Z,10.70
2018-05-07T01:48:20.165Z,10.60
2018-05-07T01:50:46.550Z,10.60
2018-05-07T01:53:12.914Z,10.60
2018-05-07T01:55:39.353Z,10.60
2018-05-07T01:58:05.761Z,10.50
2018-05-07T02:00:32.165Z,10.50
2018-05-07T02:02:58.561Z,10.50
2018-05-07T02:05:25.586Z,10.50
2018-05-07T02:07:52.900Z,10.40
2018-05-07T02:10:19.325Z,10.40
2018-05-07T02:12:45.714Z,10.40
2018-05-07T02:15:12.089Z,10.40
2018-05-07T02:17:38.473Z,10.30
2018-05-07T02:20:04.901Z,10.20
2018-05-07T02:22:31.349Z,10.20
2018-05-07T02:24:57.858Z,10.20
2018-05-07T02:27:24.225Z,10.20
2018-05-07T02:29:51.340Z,10.10
2018-05-07T02:32:17.747Z,10.10
2018-05-07T02:34:44.118Z,10.00
2018-05-07T02:37:10.585Z,10.00
2018-05-07T02:39:38.740Z,10.10
2018-05-07T02:42:05.102Z,10.00
2018-05-07T02:44:31.570Z,10.00
2018-05-07T02:46:57.953Z,9.90
2018-05-07T02:49:25.793Z,9.90
2018-05-07T02:51:52.187Z,9.80
2018-05-07T02:54:18.621Z,9.90
2018-05-07T02:56:44.981Z,9.90
2018-05-07T02:59:11.358Z,9.80
2018-05-07T03:01:37.761Z,9.80
2018-05-07T03:04:05.934Z,9.70
2018-05-07T03:06:32.358Z,9.70
2018-05-07T03:08:58.758Z,9.70
2018-05-07T03:11:25.137Z,9.70
2018-05-07T03:13:52.252Z,9.60
2018-05-07T03:16:18.661Z,9.60
2018-05-07T03:21:05.636Z,9.60
2018-05-07T03:23:33.521Z,9.40
2018-05-07T03:25:59.906Z,9.50
2018-05-07T03:28:26.265Z,9.50
2018-05-07T03:30:52.673Z,9.50
2018-05-07T03:33:19.121Z,9.50
2018-05-07T03:35:47.254Z,9.40
2018-05-07T03:38:13.672Z,9.40
2018-05-07T03:40:40.057Z,9.30
2018-05-07T03:43:06.562Z,9.30
2018-05-07T03:45:32.968Z,9.20
2018-05-07T03:48:00.077Z,9.20
2018-05-07T03:50:26.465Z,9.20
2018-05-07T03:52:53.430Z,9.20
2018-05-07T03:55:19.937Z,9.20
2018-05-07T03:57:46.313Z,9.10
2018-05-07T04:00:12.838Z,9.10
2018-05-07T04:02:39.242Z,9.10
2018-05-07T04:05:05.633Z,9.10
2018-05-07T04:07:32.058Z,9.10
2018-05-07T04:09:58.429Z,9.10
2018-05-07T04:12:24.834Z,9.10
2018-05-07T04:14:51.227Z,9.10
2018-05-07T04:17:29.984Z,9.10
2018-05-07T04:20:08.767Z,9.10
2018-05-07T04:25:35.546Z,9.10
2018-05-07T04:28:01.915Z,9.00
2018-05-07T04:30:29.025Z,9.20
2018-05-07T04:32:55.425Z,9.20
2018-05-07T04:35:21.812Z,9.20
2018-05-07T04:37:48.215Z,9.20
2018-05-07T04:40:14.652Z,9.20
2018-05-07T04:42:41.044Z,9.30
2018-05-07T04:45:07.411Z,9.40
2018-05-07T04:47:33.817Z,9.40
2018-05-07T04:50:00.181Z,9.40
2018-05-07T04:52:26.597Z,9.50
2018-05-07T04:54:52.989Z,9.60
2018-05-07T04:57:20.382Z,9.60
2018-05-07T04:59:46.778Z,9.60
2018-05-07T05:02:13.934Z,9.80
2018-05-07T05:04:41.360Z,9.80
2018-05-07T05:07:07.752Z,9.80
2018-05-07T05:09:34.174Z,9.90
2018-05-07T05:12:01.189Z,10.00
2018-05-07T05:14:28.782Z,10.10
2018-05-07T05:16:55.246Z,10.10
2018-05-07T05:19:21.618Z,10.10
2018-05-07T05:21:48.720Z,10.30
2018-05-07T05:24:15.102Z,10.30
2018-05-07T05:26:42.217Z,10.50
2018-05-07T05:29:08.577Z,10.50
2018-05-07T05:31:34.961Z,10.60
2018-05-07T05:34:01.325Z,10.70
2018-05-07T05:36:27.686Z,10.80
2018-05-07T05:38:54.826Z,11.20
2018-05-07T05:41:21.932Z,11.30
2018-05-07T05:43:48.329Z,11.30
2018-05-07T05:46:14.725Z,11.50
2018-05-07T05:48:41.137Z,11.70
2018-05-07T05:51:07.506Z,11.80
2018-05-07T05:53:34.625Z,11.80
2018-05-07T05:56:01.013Z,11.80
2018-05-07T05:58:27.377Z,12.00
2018-05-07T06:00:54.497Z,12.40
2018-05-07T06:03:20.868Z,12.40
2018-05-07T06:05:47.270Z,12.80
2018-05-07T06:08:13.649Z,13.00
2018-05-07T06:10:40.014Z,13.20
2018-05-07T06:13:06.418Z,13.40
2018-05-07T06:15:32.806Z,13.60
2018-05-07T06:17:59.185Z,13.70
2018-05-07T06:20:26.324Z,13.90
2018-05-07T06:22:52.701Z,13.90
2018-05-07T06:25:19.085Z,14.10
2018-05-07T06:27:45.467Z,14.30
2018-05-07T06:30:11.870Z,14.40
2018-05-07T06:32:38.996Z,14.90
2018-05-07T06:35:05.395Z,14.90
2018-05-07T06:37:31.758Z,15.00
2018-05-07T06:39:58.921Z,15.10
2018-05-07T06:42:25.297Z,15.10
2018-05-07T06:44:51.670Z,15.20
2018-05-07T06:47:18.152Z,15.30
2018-05-07T06:49:44.516Z,15.30
2018-05-07T06:52:10.991Z,15.50
2018-05-07T06:54:37.325Z,15.60
2018-05-07T06:57:04.474Z,15.80
2018-05-07T06:59:31.589Z,15.90
2018-05-07T07:01:57.985Z,15.90
2018-05-07T07:04:24.359Z,16.00
2018-05-07T07:06:51.478Z,16.20
2018-05-07T07:09:17.874Z,16.20
2018-05-07T07:11:44.999Z,16.50
2018-05-07T07:14:11.389Z,16.50
2018-05-07T07:16:37.782Z,16.50
2018-05-07T07:19:04.887Z,16.80
2018-05-07T07:21:31.309Z,16.80
2018-05-07T07:23:57.672Z,16.90
2018-05-07T07:26:24.081Z,17.10
2018-05-07T07:28:50.502Z,17.30
2018-05-07T07:31:16.914Z,17.30
2018-05-07T07:33:43.352Z,17.40
2018-05-07T07:36:09.685Z,17.40
2018-05-07T07:38:36.049Z,17.60
2018-05-07T07:41:02.437Z,17.70
2018-05-07T07:43:29.546Z,18.20
2018-05-07T07:45:55.929Z,18.20
2018-05-07T07:48:22.349Z,18.20
2018-05-07T07:50:49.455Z,18.40
2018-05-07T07:53:15.825Z,18.40
2018-05-07T07:55:42.953Z,18.70
2018-05-07T07:58:09.310Z,18.70
2018-05-07T08:00:36.462Z,18.80
2018-05-07T08:03:04.565Z,18.80
2018-05-07T08:05:30.931Z,18.80
2018-05-07T08:07:57.345Z,18.80
2018-05-07T08:10:23.736Z,18.80
2018-05-07T08:12:50.842Z,19.00
2018-05-07T08:15:17.220Z,19.00
2018-05-07T08:17:43.601Z,19.10
2018-05-07T08:20:09.979Z,19.10
2018-05-07T08:22:36.355Z,19.30
2018-05-07T08:25:02.754Z,19.40
2018-05-07T08:27:29.124Z,19.80
2018-05-07T08:29:55.487Z,19.70
2018-05-07T08:32:23.629Z,19.70
2018-05-07T08:34:50.023Z,19.80
2018-05-07T08:37:17.439Z,19.90
2018-05-07T08:39:45.313Z,19.90
2018-05-07T08:42:12.981Z,20.00
2018-05-07T08:44:40.078Z,20.00
2018-05-07T08:47:06.474Z,20.00
2018-05-07T08:49:33.577Z,20.10
2018-05-07T08:51:59.956Z,20.00
2018-05-07T08:54:27.653Z,20.10
2018-05-07T08:56:54.050Z,20.20
2018-05-07T08:59:21.166Z,20.70
2018-05-07T09:01:47.557Z,20.60
2018-05-07T09:04:13.925Z,20.80
2018-05-07T09:06:40.289Z,20.80
2018-05-07T09:09:07.406Z,20.80
2018-05-07T09:11:35.903Z,20.80
2018-05-07T09:14:03.024Z,21.30
2018-05-07T09:16:29.422Z,21.30
2018-05-07T09:18:55.809Z,21.40
2018-05-07T09:21:22.210Z,21.40
2018-05-07T09:23:48.590Z,21.20
2018-05-07T09:26:19.111Z,21.10
2018-05-07T09:28:45.497Z,20.70
2018-05-07T09:31:11.889Z,21.20
2018-05-07T09:33:39.002Z,21.70
2018-05-07T09:36:05.370Z,21.70
2018-05-07T09:38:32.481Z,21.90
2018-05-07T09:40:58.849Z,21.90
2018-05-07T09:43:25.958Z,22.20
2018-05-07T09:45:53.365Z,22.20
2018-05-07T09:48:19.761Z,22.40
2018-05-07T09:50:46.165Z,22.70
2018-05-07T09:53:12.581Z,22.70
2018-05-07T09:55:38.981Z,22.70
2018-05-07T09:58:06.095Z,22.90
2018-05-07T10:00:34.277Z,22.90
2018-05-07T10:03:03.838Z,23.00
2018-05-07T10:05:30.348Z,22.90
2018-05-07T10:07:56.777Z,22.80
2018-05-07T10:10:23.140Z,22.80
2018-05-07T10:12:49.513Z,22.50
2018-05-07T10:15:17.636Z,22.90
2018-05-07T10:17:44.001Z,22.90
2018-05-07T10:20:10.359Z,23.20
2018-05-07T10:22:37.477Z,23.00
2018-05-07T10:25:03.845Z,23.00
2018-05-07T10:27:30.941Z,23.00
2018-05-07T10:29:57.365Z,23.00
2018-05-07T10:32:23.725Z,23.10
2018-05-07T10:34:50.094Z,23.40
2018-05-07T10:37:16.498Z,23.10
2018-05-07T10:39:42.873Z,23.10
2018-05-07T10:42:09.233Z,23.30
2018-05-07T10:44:35.634Z,23.20
2018-05-07T10:47:02.752Z,23.30
2018-05-07T10:49:29.109Z,23.30
2018-05-07T10:51:55.484Z,23.40
2018-05-07T10:54:21.836Z,23.50
2018-05-07T10:56:48.221Z,23.90
2018-05-07T10:59:15.336Z,24.20
2018-05-07T11:01:41.797Z,24.20
2018-05-07T11:04:08.134Z,24.20
2018-05-07T11:06:35.233Z,24.50
2018-05-07T11:09:01.634Z,24.40
2018-05-07T11:11:34.852Z,24.50
2018-05-07T11:14:01.256Z,24.40
2018-05-07T11:16:27.631Z,24.40
2018-05-07T11:18:54.025Z,24.50
2018-05-07T11:21:21.457Z,24.30
2018-05-07T11:23:48.625Z,24.70
2018-05-07T11:26:14.997Z,24.70
2018-05-07T11:28:41.389Z,24.90
2018-05-07T11:31:07.796Z,24.70
2018-05-07T11:33:34.161Z,24.80
2018-05-07T11:36:00.565Z,24.90
2018-05-07T11:38:27.670Z,24.90
2018-05-07T11:40:54.998Z,24.90
2018-05-07T11:43:22.618Z,24.80
2018-05-07T11:45:49.739Z,25.30
2018-05-07T11:48:16.093Z,25.20
2018-05-07T11:50:42.470Z,25.50
2018-05-07T11:53:08.911Z,25.50
2018-05-07T11:55:35.236Z,25.50
2018-05-07T11:58:01.658Z,25.30
2018-05-07T12:00:28.078Z,25.50
2018-05-07T12:02:55.179Z,25.60
2018-05-07T12:05:21.569Z,25.60
2018-05-07T12:07:47.926Z,25.70
2018-05-07T12:10:14.309Z,25.90
2018-05-07T12:12:41.417Z,25.90
2018-05-07T12:15:07.793Z,25.90
2018-05-07T12:17:34.145Z,26.10
2018-05-07T12:20:01.521Z,26.10
2018-05-07T12:22:27.882Z,25.90
2018-05-07T12:24:54.283Z,25.70
2018-05-07T12:27:20.652Z,25.60
2018-05-07T12:29:47.037Z,25.90
2018-05-07T12:32:13.438Z,26.30
2018-05-07T12:34:40.541Z,27.10
2018-05-07T12:37:07.055Z,27.10
2018-05-07T12:39:33.410Z,27.80
2018-05-07T12:41:59.769Z,28.60
2018-05-07T12:44:26.150Z,29.40
2018-05-07T12:46:52.569Z,30.00
2018-05-07T12:49:18.961Z,30.40
2018-05-07T12:51:45.351Z,31.00
2018-05-07T12:54:11.705Z,31.40
2018-05-07T12:56:38.081Z,31.80
2018-05-07T12:59:05.261Z,33.10
2018-05-07T13:01:32.633Z,33.00
2018-05-07T13:03:59.003Z,33.80
2018-05-07T13:06:26.149Z,33.80
2018-05-07T13:08:52.532Z,33.80
2018-05-07T13:11:19.866Z,33.30
2018-05-07T13:13:46.329Z,32.90
2018-05-07T13:16:13.029Z,32.70
2018-05-07T13:18:40.118Z,32.70
2018-05-07T13:21:07.520Z,32.70
2018-05-07T13:23:34.623Z,33.10
2018-05-07T13:26:01.001Z,33.10
2018-05-07T13:28:29.122Z,33.40
2018-05-07T13:30:55.538Z,33.40
2018-05-07T13:33:21.946Z,33.30
2018-05-07T13:35:49.533Z,34.60
2018-05-07T13:38:15.905Z,34.50
2018-05-07T13:40:42.261Z,34.40
2018-05-07T13:43:09.453Z,34.20
2018-05-07T13:45:35.832Z,34.10
2018-05-07T13:48:02.209Z,34.40
2018-05-07T13:50:30.737Z,34.70
2018-05-07T13:52:57.113Z,34.60
2018-05-07T13:55:24.230Z,35.60
2018-05-07T13:57:50.623Z,35.60
2018-05-07T14:00:16.982Z,35.60
2018-05-07T14:02:43.437Z,35.60
2018-05-07T14:05:09.757Z,35.80
2018-05-07T14:07:36.127Z,35.60
2018-05-07T14:10:02.574Z,35.50
2018-05-07T14:12:28.923Z,35.40
2018-05-07T14:14:55.298Z,35.10
2018-05-07T14:17:22.393Z,34.30
2018-05-07T14:19:48.742Z,34.30
2018-05-07T14:22:15.146Z,34.50
2018-05-07T14:24:41.512Z,34.30
2018-05-07T14:27:07.890Z,34.60
2018-05-07T14:29:36.016Z,34.60
2018-05-07T14:32:02.439Z,34.60
2018-05-07T14:34:29.853Z,35.00
2018-05-07T14:36:56.961Z,35.40
2018-05-07T14:39:23.341Z,35.40
2018-05-07T14:41:49.710Z,35.30
2018-05-07T14:44:16.069Z,35.00
2018-05-07T14:46:42.512Z,35.10
2018-05-07T14:49:09.612Z,35.50
2018-05-07T14:51:37.033Z,35.50
2018-05-07T14:54:04.157Z,36.10
2018-05-07T14:56:30.504Z,36.00
2018-05-07T14:58:57.622Z,35.90
2018-05-07T15:01:23.973Z,35.90
2018-05-07T15:03:50.377Z,36.00
2018-05-07T15:06:16.749Z,35.60
2018-05-07T15:08:43.843Z,35.80
2018-05-07T15:11:10.285Z,35.70
2018-05-07T15:13:36.687Z,36.00
2018-05-07T15:16:03.798Z,36.20
2018-05-07T15:18:30.905Z,36.70
2018-05-07T15:20:57.266Z,36.60
2018-05-07T15:23:24.668Z,36.80
2018-05-07T15:25:51.069Z,36.50
2018-05-07T15:28:19.905Z,36.60
2018-05-07T15:30:47.224Z,36.50
2018-05-07T15:33:14.397Z,36.30
2018-05-07T15:35:40.785Z,36.30
2018-05-07T15:38:07.174Z,36.50
2018-05-07T15:40:33.525Z,36.50
2018-05-07T15:42:59.909Z,36.10
2018-05-07T15:45:27.026Z,36.30
2018-05-07T15:47:54.420Z,36.20
2018-05-07T15:50:21.598Z,36.40
2018-05-07T15:52:47.963Z,36.30
2018-05-07T15:55:14.371Z,36.30
2018-05-07T15:57:41.450Z,36.80
2018-05-07T16:00:08.586Z,36.50
2018-05-07T16:02:34.951Z,36.50
2018-05-07T16:05:02.074Z,36.00
2018-05-07T16:07:29.462Z,36.00
2018-05-07T16:09:56.577Z,35.90
2018-05-07T16:12:22.962Z,35.90
2018-05-07T16:14:49.356Z,35.60
2018-05-07T16:17:16.509Z,35.20
2018-05-07T16:19:43.613Z,35.50
2018-05-07T16:22:10.118Z,35.40
2018-05-07T16:24:36.431Z,35.20
2018-05-07T16:27:03.570Z,35.20
2018-05-07T16:29:30.690Z,35.00
2018-05-07T16:31:57.189Z,35.00
2018-05-07T16:34:23.621Z,35.00
2018-05-07T16:36:50.001Z,34.80
2018-05-07T16:39:16.378Z,34.70
2018-05-07T16:41:43.513Z,34.90
2018-05-07T16:44:11.548Z,34.90
2018-05-07T16:46:38.712Z,34.20
2018-05-07T16:49:05.150Z,34.10
2018-05-07T16:51:31.513Z,33.70
2018-05-07T16:53:58.618Z,34.50
2018-05-07T16:56:24.990Z,34.40
2018-05-07T16:58:52.121Z,35.10
2018-05-07T17:01:18.489Z,35.00
2018-05-07T17:03:44.853Z,35.20
2018-05-07T17:06:11.757Z,35.30
2018-05-07T17:08:38.120Z,34.90
2018-05-07T17:11:04.533Z,34.60
2018-05-07T17:13:32.086Z,34.30
2018-05-07T17:15:58.461Z,33.70
2018-05-07T17:18:24.822Z,33.10
2018-05-07T17:20:51.954Z,31.10
2018-05-07T17:23:19.316Z,31.00
2018-05-07T17:25:45.700Z,30.20
2018-05-07T17:28:13.125Z,29.40
2018-05-07T17:30:40.320Z,28.40
2018-05-07T17:33:07.268Z,28.40
2018-05-07T17:35:33.630Z,28.00
2018-05-07T17:38:01.181Z,27.10
2018-05-07T17:40:27.549Z,26.50
2018-05-07T17:42:54.674Z,25.20
2018-05-07T17:45:33.217Z,25.10
2018-05-07T17:48:13.011Z,24.00
2018-05-07T17:50:39.193Z,23.90
2018-05-07T17:53:05.585Z,23.50
2018-05-07T17:55:32.067Z,23.10
2018-05-07T17:57:58.534Z,22.80
2018-05-07T18:00:24.893Z,22.60
2018-05-07T18:02:52.026Z,22.00
2018-05-07T18:05:18.407Z,21.90
2018-05-07T18:07:45.524Z,21.40
2018-05-07T18:10:12.001Z,21.40
2018-05-07T18:12:38.462Z,21.20
2018-05-07T18:15:04.865Z,21.00
2018-05-07T18:17:31.223Z,21.00
2018-05-07T18:19:57.613Z,20.90
2018-05-07T18:22:24.725Z,20.70
2018-05-07T18:24:51.132Z,20.60
2018-05-07T18:27:18.521Z,20.50
2018-05-07T18:29:44.919Z,20.30
2018-05-07T18:32:11.294Z,20.20
2018-05-07T18:34:40.145Z,19.90
2018-05-07T18:37:07.564Z,19.90
2018-05-07T18:39:34.678Z,19.70
2018-05-07T18:42:01.043Z,19.60
2018-05-07T18:44:28.162Z,19.40
2018-05-07T18:46:56.361Z,19.10
2018-05-07T18:49:23.521Z,18.90
2018-05-07T18:51:50.633Z,18.80
2018-05-07T18:54:17.173Z,18.80
2018-05-07T18:56:43.548Z,18.70
2018-05-07T18:59:09.977Z,18.70
2018-05-07T19:01:36.358Z,18.60
2018-05-07T19:04:03.809Z,18.60
2018-05-07T19:06:30.190Z,18.50
2018-05-07T19:08:56.590Z,18.40
2018-05-07T19:11:23.690Z,18.30
2018-05-07T19:13:50.082Z,18.30
2018-05-07T19:16:17.194Z,18.10
2018-05-07T19:18:43.597Z,18.10
2018-05-07T19:21:09.977Z,18.10
2018-05-07T19:23:36.363Z,18.00
2018-05-07T19:26:02.827Z,17.90
2018-05-07T19:28:29.233Z,17.80
2018-05-07T19:30:56.409Z,17.80
2018-05-07T19:33:22.805Z,17.70
2018-05-07T19:35:49.246Z,17.60
2018-05-07T19:38:15.614Z,17.50
2018-05-07T19:40:42.013Z,17.50
2018-05-07T19:43:08.409Z,17.40
2018-05-07T19:45:36.550Z,17.30
2018-05-07T19:48:02.963Z,17.30
2018-05-07T19:50:30.378Z,17.20
2018-05-07T19:52:57.480Z,17.10
2018-05-07T19:55:23.869Z,17.10
2018-05-07T19:57:50.966Z,17.10
2018-05-07T20:00:17.347Z,17.00
2018-05-07T20:02:45.477Z,16.90
2018-05-07T20:05:11.865Z,16.80
2018-05-07T20:07:38.230Z,16.90
2018-05-07T20:10:04.654Z,16.80
2018-05-07T20:12:31.095Z,16.80
2018-05-07T20:14:58.189Z,16.70
2018-05-07T20:17:25.314Z,16.60
2018-05-07T20:19:52.505Z,16.60
2018-05-07T20:22:18.886Z,16.50
2018-05-07T20:24:45.277Z,16.60
2018-05-07T20:27:11.644Z,16.50
2018-05-07T20:29:38.045Z,16.40
2018-05-07T20:32:04.493Z,16.30
2018-05-07T20:34:30.862Z,16.30
2018-05-07T20:36:57.347Z,16.20
2018-05-07T20:39:23.745Z,16.20
2018-05-07T20:41:50.275Z,16.10
2018-05-07T20:44:16.653Z,16.00
2018-05-07T20:46:43.061Z,15.90
2018-05-07T20:49:10.197Z,15.40
2018-05-07T20:51:37.329Z,15.30
2018-05-07T20:54:03.729Z,15.20
2018-05-07T20:56:30.179Z,15.10
2018-05-07T20:58:56.550Z,15.00
2018-05-07T21:01:22.969Z,14.90
2018-05-07T21:03:49.486Z,14.90
2018-05-07T21:06:15.861Z,14.80
2018-05-07T21:08:43.034Z,14.60
2018-05-07T21:11:09.468Z,14.60
2018-05-07T21:13:35.926Z,14.60
2018-05-07T21:16:02.329Z,14.50
2018-05-07T21:18:28.698Z,14.50
2018-05-07T21:20:55.069Z,14.40
2018-05-07T21:23:23.241Z,14.30
2018-05-07T21:25:50.358Z,14.30
2018-05-07T21:28:16.730Z,14.30
2018-05-07T21:30:43.933Z,14.30
2018-05-07T21:33:10.328Z,14.20
2018-05-07T21:35:36.759Z,14.10
2018-05-07T21:38:04.237Z,13.90
2018-05-07T21:40:31.098Z,13.80
2018-05-07T21:42:57.498Z,13.70
2018-05-07T21:45:23.893Z,13.70
2018-05-07T21:47:50.261Z,13.70
2018-05-07T21:50:16.634Z,13.70
2018-05-07T21:52:43.016Z,13.70
2018-05-07T21:55:09.385Z,13.60
2018-05-07T21:57:35.777Z,13.60
2018-05-07T22:00:02.357Z,13.60
2018-05-07T22:02:28.732Z,13.70
2018-05-07T22:04:55.113Z,13.70
2018-05-07T22:07:21.533Z,13.70
2018-05-07T22:09:49.149Z,13.70
2018-05-07T22:12:16.290Z,13.70
2018-05-07T22:14:42.890Z,13.70
2018-05-07T22:17:09.415Z,13.60
2018-05-07T22:19:35.848Z,13.60
2018-05-07T22:22:02.496Z,13.60
2018-05-07T22:24:29.021Z,13.60
2018-05-07T22:26:55.459Z,13.60
2018-05-07T22:29:21.896Z,13.60
2018-05-07T22:31:48.525Z,13.50
2018-05-07T22:34:15.163Z,13.40
2018-05-07T22:36:41.701Z,13.40
2018-05-07T22:39:08.145Z,13.40
2018-05-07T22:41:34.688Z,13.40
2018-05-07T22:44:01.137Z,13.40
2018-05-07T22:46:28.282Z,13.40
2018-05-07T22:48:55.529Z,13.40
2018-05-07T22:51:22.949Z,13.40
2018-05-07T22:53:50.389Z,13.40
2018-05-07T22:56:16.834Z,13.40
2018-05-07T22:58:43.270Z,13.40
2018-05-07T23:01:10.015Z,13.40
2018-05-07T23:03:36.422Z,13.40
2018-05-07T23:06:02.858Z,13.40
2018-05-07T23:08:29.311Z,13.40
2018-05-07T23:10:55.716Z,13.40
2018-05-07T23:13:22.879Z,13.40
2018-05-07T23:15:49.283Z,13.40
2018-05-07T23:18:16.442Z,13.40
2018-05-07T23:20:44.698Z,13.40
2018-05-07T23:23:11.095Z,13.40
2018-05-07T23:25:37.502Z,13.30
2018-05-07T23:28:03.933Z,13.30
2018-05-07T23:30:30.343Z,13.30
2018-05-07T23:32:57.522Z,13.40
2018-05-07T23:35:23.934Z,13.30
2018-05-07T23:37:51.156Z,13.30
2018-05-07T23:40:17.560Z,13.30
2018-05-07T23:42:44.022Z,13.30
2018-05-07T23:45:10.646Z,13.30
2018-05-07T23:47:38.112Z,13.30
2018-05-07T23:50:04.737Z,13.20
2018-05-07T23:52:31.373Z,13.20
2018-05-07T23:54:57.909Z,13.20
2018-05-07T23:57:24.546Z,13.20
2018-05-07T23:59:51.286Z,13.20
